Portada
METAR-TAF:

METAR-TAF

Aeroports :

Johor Bahru, Malàisia

latitud: 01-38N, longitud: 103-40E, altitud: 37 m

Observació

L'informe es va fer fa 1 hora i 3 minuts, a les 04:00 UTC
Vent 8 kt del Nord/Nord-Est, variant entre Oest i Est/Nord-Est
Temperatura 32°C
Humitat 67%
Pressió 1009 hPa
Visibilitat 10 km o més
Escasses núvols a una alçada de 1800 ft

METAR: WMKJ 290400Z 03008KT 260V070 9999 FEW018 32/25 Q1009

Hora: 13:03 (05:03 UTC)

Pronòstic

L'informe es va fer fa 6 hores i 3 minuts, a les 23:00 UTC
Pronòstic vàlid del 29 a les 00 UTC al 30 a les 00 UTC
Vent 6 kt del Nord/Nord-Est
Visibilitat 10 km o més
Escasses núvols a una alçada de 1800 ft

TAF: WMKJ 282300Z 2900/3000 02006KT 9999 FEW018

Observacions i pronòstics meteorològics de més de 4000 aeroports (METAR i TAF).

Les estacions disponibles són els punts grocs i vermells al mapa.

Posi el ratolí al punt desitjat per veure el nom de l'estació.

Feu clic per veure les observacions i els pronòstics meteorològics.

Per canviar el mapa: feu clic els botons verds amb una creu de color negre per apropar; al botó verd amb un guió per allunyar la imatge; o en les fletxes verdes per a mapes adjacents.


METAR-TAF: